createdAt,value
2023-01-11T00:01:10.349Z,3.33
2023-01-11T00:03:40.206Z,3.10
2023-01-11T00:06:08.988Z,2.97
2023-01-11T00:08:37.829Z,3.40
2023-01-11T00:11:10.634Z,3.00
2023-01-11T00:13:39.273Z,3.30
2023-01-11T00:16:09.987Z,2.83
2023-01-11T00:18:40.884Z,3.40
2023-01-11T00:21:09.663Z,3.40
2023-01-11T00:23:39.349Z,3.33
2023-01-11T00:26:09.312Z,3.33
2023-01-11T00:28:38.113Z,3.00
2023-01-11T00:31:07.123Z,2.80
2023-01-11T00:33:37.302Z,2.80
2023-01-11T00:36:06.156Z,2.83
2023-01-11T00:38:51.374Z,2.37
2023-01-11T00:41:38.511Z,2.57
2023-01-11T00:44:25.130Z,2.70
2023-01-11T00:47:11.233Z,2.57
2023-01-11T00:49:41.189Z,2.63
2023-01-11T00:52:10.155Z,2.30
2023-01-11T00:54:39.596Z,2.30
2023-01-11T00:57:08.606Z,2.70
2023-01-11T00:59:37.409Z,2.20
2023-01-11T01:02:08.226Z,2.50
2023-01-11T01:04:37.178Z,2.70
2023-01-11T01:07:08.088Z,2.67
2023-01-11T01:09:36.596Z,2.80
2023-01-11T01:12:07.018Z,2.60
2023-01-11T01:14:34.871Z,2.80
2023-01-11T01:17:07.238Z,2.80
2023-01-11T01:19:37.202Z,2.60
2023-01-11T01:22:07.346Z,2.50
2023-01-11T01:24:36.692Z,2.37
2023-01-11T01:27:05.267Z,2.70
2023-01-11T01:29:33.831Z,2.57
2023-01-11T01:32:02.467Z,2.63
2023-01-11T01:34:31.042Z,2.93
2023-01-11T01:36:59.584Z,2.60
2023-01-11T01:39:29.855Z,2.60
2023-01-11T01:41:58.382Z,2.60
2023-01-11T01:44:53.148Z,2.80
2023-01-11T01:47:23.254Z,2.40
2023-01-11T01:49:51.979Z,2.33
2023-01-11T01:52:20.656Z,2.37
2023-01-11T01:54:50.717Z,2.20
2023-01-11T01:57:23.385Z,2.77
2023-01-11T01:59:52.841Z,2.60
2023-01-11T02:02:24.039Z,2.50
2023-01-11T02:04:54.727Z,2.63
2023-01-11T02:07:26.809Z,2.50
2023-01-11T02:10:01.578Z,2.70
2023-01-11T02:12:32.736Z,2.50
2023-01-11T02:15:02.153Z,2.70
2023-01-11T02:17:30.663Z,2.30
2023-01-11T02:20:07.335Z,2.43
2023-01-11T02:23:06.233Z,2.40
2023-01-11T02:26:32.568Z,2.50
2023-01-11T02:29:06.069Z,2.47
2023-01-11T02:31:38.156Z,2.30
2023-01-11T02:34:18.572Z,2.50
2023-01-11T02:36:55.760Z,2.30
2023-01-11T02:39:31.319Z,2.33
2023-01-11T02:42:25.809Z,2.40
2023-01-11T02:45:03.801Z,2.30
2023-01-11T02:47:40.581Z,2.53
2023-01-11T02:50:16.036Z,2.13
2023-01-11T02:52:51.897Z,2.27
2023-01-11T02:55:23.467Z,2.50
2023-01-11T02:57:53.924Z,2.20
2023-01-11T03:00:24.673Z,1.80
2023-01-11T03:03:15.614Z,2.20
2023-01-11T03:05:47.923Z,2.70
2023-01-11T03:08:36.175Z,2.23
2023-01-11T03:11:06.847Z,2.20
2023-01-11T03:13:52.824Z,2.00
2023-01-11T03:16:27.361Z,2.10
2023-01-11T03:19:10.664Z,2.00
2023-01-11T03:21:56.257Z,2.30
2023-01-11T03:24:31.703Z,2.10
2023-01-11T03:27:09.213Z,2.23
2023-01-11T03:29:41.343Z,1.80
2023-01-11T03:32:18.864Z,1.83
2023-01-11T03:34:52.939Z,2.20
2023-01-11T03:37:25.715Z,2.27
2023-01-11T03:40:00.659Z,2.10
2023-01-11T03:42:30.350Z,2.03
2023-01-11T03:44:59.637Z,1.53
2023-01-11T03:47:30.625Z,1.90
2023-01-11T03:50:02.282Z,2.07
2023-01-11T03:52:34.119Z,1.80
2023-01-11T03:55:04.677Z,1.80
2023-01-11T03:57:35.153Z,1.80
2023-01-11T04:00:05.324Z,2.03
2023-01-11T04:02:37.959Z,2.03
2023-01-11T04:05:07.773Z,2.10
2023-01-11T04:07:36.437Z,2.20
2023-01-11T04:10:05.502Z,2.23
2023-01-11T04:12:34.006Z,2.20
2023-01-11T04:15:03.264Z,2.17
2023-01-11T04:17:31.979Z,3.17
2023-01-11T04:20:01.928Z,3.20
2023-01-11T04:22:30.415Z,5.93
2023-01-11T04:24:58.977Z,4.00
2023-01-11T04:27:27.494Z,3.03
2023-01-11T04:29:56.076Z,2.20
2023-01-11T04:32:24.681Z,1.87
2023-01-11T04:34:53.259Z,2.00
2023-01-11T04:37:23.223Z,2.20
2023-01-11T04:39:51.791Z,2.10
2023-01-11T04:42:19.332Z,2.43
2023-01-11T04:44:49.013Z,2.10
2023-01-11T04:47:18.267Z,2.20
2023-01-11T04:49:47.107Z,2.00
2023-01-11T04:52:17.009Z,2.37
2023-01-11T04:54:48.795Z,2.70
2023-01-11T04:57:20.923Z,2.10
2023-01-11T04:59:50.575Z,2.20
2023-01-11T05:02:35.767Z,2.47
2023-01-11T05:05:33.779Z,2.40
2023-01-11T05:08:38.913Z,2.30
2023-01-11T05:11:58.959Z,2.40
2023-01-11T05:15:20.837Z,2.70
2023-01-11T05:18:18.815Z,2.40
2023-01-11T05:21:17.223Z,2.87
2023-01-11T05:23:52.030Z,2.87
2023-01-11T05:26:32.694Z,4.43
2023-01-11T05:29:04.480Z,3.00
2023-01-11T05:31:41.589Z,4.43
2023-01-11T05:34:17.423Z,4.00
2023-01-11T05:36:50.000Z,3.20
2023-01-11T05:39:23.780Z,3.13
2023-01-11T05:41:58.144Z,3.40
2023-01-11T05:44:45.708Z,3.00
2023-01-11T05:47:14.837Z,3.10
2023-01-11T05:49:43.467Z,2.97
2023-01-11T05:52:16.812Z,2.47
2023-01-11T05:54:50.960Z,2.70
2023-01-11T05:57:25.961Z,2.90
2023-01-11T05:59:54.831Z,2.40
2023-01-11T06:02:26.421Z,2.30
2023-01-11T06:04:58.991Z,2.97
2023-01-11T06:07:32.527Z,2.40
2023-01-11T06:10:02.045Z,2.50
2023-01-11T06:12:33.140Z,2.50
2023-01-11T06:15:05.303Z,2.27
2023-01-11T06:17:37.385Z,2.33
2023-01-11T06:20:11.783Z,2.53
2023-01-11T06:22:47.948Z,2.77
2023-01-11T06:25:20.660Z,2.63
2023-01-11T06:27:56.890Z,2.57
2023-01-11T06:30:26.769Z,2.43
2023-01-11T06:32:55.349Z,2.30
2023-01-11T06:35:27.140Z,2.70
2023-01-11T06:38:00.338Z,2.53
2023-01-11T06:40:32.951Z,2.37
2023-01-11T06:43:08.149Z,2.50
2023-01-11T06:45:38.352Z,2.40
2023-01-11T06:48:07.451Z,2.30
2023-01-11T06:50:40.777Z,2.70
2023-01-11T06:53:13.439Z,2.37
2023-01-11T06:55:42.996Z,2.73
2023-01-11T06:58:12.936Z,2.60
2023-01-11T07:00:46.012Z,3.10
2023-01-11T07:03:19.445Z,3.80
2023-01-11T07:05:53.842Z,3.00
2023-01-11T07:08:26.639Z,3.00
2023-01-11T07:10:56.113Z,3.10
2023-01-11T07:13:25.996Z,2.80
2023-01-11T07:16:01.241Z,2.80
2023-01-11T07:18:34.909Z,3.10
2023-01-11T07:21:07.531Z,5.10
2023-01-11T07:23:36.994Z,3.20
2023-01-11T07:26:07.373Z,3.70
2023-01-11T07:28:40.375Z,5.23
2023-01-11T07:31:12.880Z,5.63
2023-01-11T07:33:42.496Z,5.87
2023-01-11T07:36:11.108Z,4.63
2023-01-11T07:38:39.689Z,4.10
2023-01-11T07:41:23.357Z,4.20
2023-01-11T07:43:58.538Z,4.50
2023-01-11T07:46:32.710Z,4.40
2023-01-11T07:49:07.523Z,5.33
2023-01-11T07:51:37.076Z,5.63
2023-01-11T07:54:20.389Z,5.50
2023-01-11T07:57:09.471Z,4.60
2023-01-11T08:00:03.632Z,4.50
2023-01-11T08:03:05.246Z,3.83
2023-01-11T08:05:55.707Z,3.80
2023-01-11T08:08:36.385Z,4.20
2023-01-11T08:11:36.031Z,3.80
2023-01-11T08:14:40.457Z,4.40
2023-01-11T08:17:34.961Z,3.90
2023-01-11T08:20:08.916Z,3.20
2023-01-11T08:22:42.779Z,3.00
2023-01-11T08:25:17.084Z,3.00
2023-01-11T08:28:18.076Z,3.10
2023-01-11T08:31:16.457Z,3.50
2023-01-11T08:33:52.066Z,4.30
2023-01-11T08:36:28.782Z,4.67
2023-01-11T08:38:59.114Z,4.47
2023-01-11T08:41:30.765Z,3.97
2023-01-11T08:44:01.157Z,3.30
2023-01-11T08:46:35.890Z,3.70
2023-01-11T08:49:13.722Z,4.63
2023-01-11T08:51:46.051Z,5.10
2023-01-11T08:54:17.622Z,4.50
2023-01-11T08:56:50.015Z,4.70
2023-01-11T08:59:23.318Z,4.43
2023-01-11T09:01:56.490Z,3.83
2023-01-11T09:04:32.539Z,4.30
2023-01-11T09:07:03.652Z,4.00
2023-01-11T09:09:35.528Z,4.30
2023-01-11T09:12:07.929Z,3.70
2023-01-11T09:14:42.569Z,3.93
2023-01-11T09:17:21.692Z,3.73
2023-01-11T09:19:58.059Z,3.43
2023-01-11T09:22:30.125Z,3.63
2023-01-11T09:25:04.153Z,3.47
2023-01-11T09:27:39.219Z,3.27
2023-01-11T09:30:22.817Z,3.77
2023-01-11T09:33:11.835Z,3.50
2023-01-11T09:35:50.995Z,3.30
2023-01-11T09:38:25.701Z,3.53
2023-01-11T09:41:03.746Z,3.20
2023-01-11T09:43:38.695Z,3.40
2023-01-11T09:46:11.039Z,3.00
2023-01-11T09:49:04.626Z,2.73
2023-01-11T09:51:46.262Z,2.70
2023-01-11T09:54:29.220Z,2.30
2023-01-11T09:57:14.195Z,2.37
2023-01-11T09:59:54.639Z,2.20
2023-01-11T10:02:36.028Z,2.17
2023-01-11T10:05:26.934Z,2.00
2023-01-11T10:18:29.963Z,2.30
2023-01-11T10:18:30.103Z,2.17
2023-01-11T10:20:29.214Z,2.00
2023-01-11T10:23:10.675Z,1.73
2023-01-11T10:25:52.586Z,2.00
2023-01-11T10:28:32.275Z,2.40
2023-01-11T10:31:26.510Z,1.67
2023-01-11T10:34:17.718Z,1.93
2023-01-11T10:37:21.006Z,1.80
2023-01-11T10:40:22.921Z,2.10
2023-01-11T10:43:01.085Z,1.97
2023-01-11T10:45:40.867Z,2.80
2023-01-11T10:48:16.506Z,1.70
2023-01-11T10:50:51.854Z,1.73
2023-01-11T10:53:23.655Z,2.40
2023-01-11T10:56:03.272Z,2.03
2023-01-11T10:58:48.501Z,2.10
2023-01-11T11:01:33.939Z,1.87
2023-01-11T11:04:19.609Z,2.10
2023-01-11T11:06:53.408Z,2.20
2023-01-11T11:09:30.277Z,1.80
2023-01-11T11:12:10.596Z,2.17
2023-01-11T11:14:46.145Z,1.63
2023-01-11T11:17:23.726Z,1.93
2023-01-11T11:19:53.534Z,2.00
2023-01-11T11:22:24.613Z,1.90
2023-01-11T11:25:02.016Z,2.33
2023-01-11T11:27:43.572Z,2.40
2023-01-11T11:30:17.992Z,1.93
2023-01-11T11:32:58.038Z,2.00
2023-01-11T11:35:41.285Z,1.90
2023-01-11T11:38:25.012Z,2.40
2023-01-11T11:40:59.515Z,2.50
2023-01-11T11:43:34.291Z,2.10
2023-01-11T11:46:08.118Z,2.50
2023-01-11T11:48:47.184Z,2.47
2023-01-11T11:51:28.099Z,3.50
2023-01-11T11:54:01.693Z,2.33
2023-01-11T11:56:34.253Z,2.40
2023-01-11T11:59:14.712Z,2.33
2023-01-11T12:02:01.127Z,2.30
2023-01-11T12:04:42.334Z,2.10
2023-01-11T12:07:19.257Z,2.13
2023-01-11T12:09:53.559Z,2.00
2023-01-11T12:12:29.649Z,2.10
2023-01-11T12:15:14.694Z,2.10
2023-01-11T12:17:44.133Z,1.80
2023-01-11T12:20:35.382Z,2.07
2023-01-11T12:23:21.327Z,2.10
2023-01-11T12:26:08.611Z,2.10
2023-01-11T12:29:16.980Z,2.40
2023-01-11T12:32:05.312Z,2.60
2023-01-11T12:34:58.155Z,2.37
2023-01-11T12:37:42.765Z,2.10
2023-01-11T12:40:20.497Z,2.60
2023-01-11T12:43:01.244Z,1.73
2023-01-11T12:45:38.899Z,1.60
2023-01-11T12:48:39.945Z,1.50
2023-01-11T12:51:21.139Z,1.40
2023-01-11T12:54:07.714Z,1.57
2023-01-11T12:56:59.253Z,1.40
2023-01-11T12:59:58.135Z,1.30
2023-01-11T13:02:43.340Z,1.37
2023-01-11T13:05:25.428Z,1.50
2023-01-11T13:08:10.022Z,1.80
2023-01-11T13:11:37.452Z,1.50
2023-01-11T13:14:37.289Z,1.50
2023-01-11T13:17:21.742Z,1.47
2023-01-11T13:20:00.229Z,1.70
2023-01-11T13:22:37.192Z,1.57
2023-01-11T13:25:20.320Z,1.70
2023-01-11T13:27:55.759Z,1.60
2023-01-11T13:30:28.815Z,1.73
2023-01-11T13:33:08.186Z,1.83
2023-01-11T13:35:42.446Z,2.03
2023-01-11T13:38:24.748Z,1.87
2023-01-11T13:41:02.295Z,1.87
2023-01-11T13:43:41.489Z,2.00
2023-01-11T13:46:15.553Z,2.13
2023-01-11T13:48:50.271Z,1.90
2023-01-11T13:51:29.096Z,2.00
2023-01-11T13:54:08.997Z,1.83
2023-01-11T13:56:41.837Z,2.30
2023-01-11T13:59:17.178Z,2.03
2023-01-11T14:01:54.468Z,2.17
2023-01-11T14:04:31.080Z,1.57
2023-01-11T14:07:19.066Z,1.70
2023-01-11T14:10:13.648Z,1.90
2023-01-11T14:13:07.708Z,1.60
2023-01-11T14:15:42.700Z,1.73
2023-01-11T14:18:33.058Z,1.50
2023-01-11T14:21:11.638Z,1.50
2023-01-11T14:23:53.067Z,1.80
2023-01-11T14:26:58.948Z,1.57
2023-01-11T14:29:59.970Z,1.70
2023-01-11T14:32:46.903Z,1.70
2023-01-11T14:35:50.281Z,1.80
2023-01-11T14:38:57.887Z,1.63
2023-01-11T14:42:02.748Z,2.20
2023-01-11T14:44:57.923Z,1.90
2023-01-11T14:47:45.164Z,1.83
2023-01-11T14:50:22.095Z,1.80
2023-01-11T14:52:57.347Z,1.90
2023-01-11T14:55:31.479Z,1.97
2023-01-11T14:58:11.087Z,2.20
2023-01-11T15:01:09.561Z,1.80
2023-01-11T15:03:56.773Z,1.60
2023-01-11T15:06:35.259Z,1.80
2023-01-11T15:09:04.963Z,2.13
2023-01-11T15:11:40.749Z,2.00
2023-01-11T15:14:35.497Z,1.80
2023-01-11T15:17:24.926Z,2.27
2023-01-11T15:19:56.476Z,3.20
2023-01-11T15:22:31.579Z,2.20
2023-01-11T15:25:03.233Z,1.80
2023-01-11T15:27:37.048Z,1.63
2023-01-11T15:30:37.179Z,2.23
2023-01-11T15:33:29.906Z,2.13
2023-01-11T15:36:05.739Z,1.80
2023-01-11T15:38:42.933Z,3.97
2023-01-11T15:41:40.511Z,3.90
2023-01-11T15:44:27.891Z,2.60
2023-01-11T15:47:33.727Z,2.10
2023-01-11T15:50:31.397Z,2.20
2023-01-11T15:53:37.237Z,1.77
2023-01-11T15:56:52.575Z,1.90
2023-01-11T15:59:53.923Z,1.80
2023-01-11T16:02:51.880Z,2.03
2023-01-11T16:05:26.648Z,1.87
2023-01-11T16:08:12.715Z,2.03
2023-01-11T16:10:51.681Z,1.90
2023-01-11T16:13:52.096Z,1.70
2023-01-11T16:16:25.883Z,1.60
2023-01-11T16:19:04.858Z,1.90
2023-01-11T16:21:39.431Z,2.30
2023-01-11T16:24:14.263Z,2.63
2023-01-11T16:26:43.931Z,2.73
2023-01-11T16:29:19.994Z,2.50
2023-01-11T16:31:58.616Z,2.47
2023-01-11T16:34:43.868Z,2.87
2023-01-11T16:37:27.157Z,3.10
2023-01-11T16:40:06.642Z,3.00
2023-01-11T16:42:45.489Z,2.70
2023-01-11T16:45:24.402Z,2.60
2023-01-11T16:48:19.063Z,2.67
2023-01-11T16:50:59.862Z,2.83
2023-01-11T16:53:34.095Z,2.57
2023-01-11T16:56:12.169Z,2.57
2023-01-11T16:58:47.834Z,3.07
2023-01-11T17:01:25.790Z,3.20
2023-01-11T17:03:59.070Z,3.40
2023-01-11T17:06:36.431Z,3.40
2023-01-11T17:09:16.271Z,3.57
2023-01-11T17:11:51.170Z,3.00
2023-01-11T17:14:41.658Z,3.10
2023-01-11T17:17:15.370Z,3.27
2023-01-11T17:19:46.520Z,3.53
2023-01-11T17:22:24.128Z,3.33
2023-01-11T17:24:56.923Z,3.20
2023-01-11T17:27:33.163Z,2.90
2023-01-11T17:30:06.204Z,2.73
2023-01-11T17:32:40.125Z,2.80
2023-01-11T17:35:19.148Z,3.20
2023-01-11T17:37:56.454Z,3.03
2023-01-11T17:40:35.056Z,3.50
2023-01-11T17:43:24.531Z,3.10
2023-01-11T17:45:56.654Z,3.33
2023-01-11T17:48:30.324Z,2.50
2023-01-11T17:51:05.030Z,3.20
2023-01-11T17:53:41.904Z,3.57
2023-01-11T17:56:39.144Z,4.30
2023-01-11T17:59:25.272Z,4.90
2023-01-11T18:01:57.688Z,4.03
2023-01-11T18:04:27.907Z,4.47
2023-01-11T18:07:09.105Z,4.03
2023-01-11T18:09:49.700Z,3.33
2023-01-11T18:12:31.280Z,3.50
2023-01-11T18:15:06.214Z,3.67
2023-01-11T18:17:37.189Z,3.30
2023-01-11T18:20:39.211Z,4.00
2023-01-11T18:23:28.881Z,3.73
2023-01-11T18:26:26.174Z,4.10
2023-01-11T18:28:54.713Z,4.60
2023-01-11T18:31:26.552Z,3.67
2023-01-11T18:33:59.788Z,3.97
2023-01-11T18:36:33.642Z,4.30
2023-01-11T18:39:03.615Z,5.37
2023-01-11T18:41:54.108Z,5.13
2023-01-11T18:44:30.046Z,4.20
2023-01-11T18:47:04.789Z,5.53
2023-01-11T18:49:34.589Z,5.77
2023-01-11T18:52:03.124Z,5.43
2023-01-11T18:54:34.231Z,6.23
2023-01-11T18:57:08.524Z,4.77
2023-01-11T18:59:38.190Z,4.57
2023-01-11T19:04:55.941Z,3.93
2023-01-11T19:07:30.614Z,4.70
2023-01-11T19:10:03.720Z,5.27
2023-01-11T19:12:34.964Z,4.63
2023-01-11T19:15:05.972Z,4.53
2023-01-11T19:17:38.158Z,3.27
2023-01-11T19:20:14.923Z,3.03
2023-01-11T19:22:46.034Z,2.93
2023-01-11T19:25:14.646Z,2.97
2023-01-11T19:27:44.627Z,3.23
2023-01-11T19:30:19.014Z,3.23
2023-01-11T19:32:55.340Z,2.83
2023-01-11T19:35:32.256Z,3.23
2023-01-11T19:38:08.621Z,2.80
2023-01-11T19:40:39.151Z,2.80
2023-01-11T19:43:18.604Z,2.80
2023-01-11T19:46:01.066Z,2.97
2023-01-11T19:48:43.013Z,3.57
2023-01-11T19:51:18.313Z,4.43
2023-01-11T19:53:47.387Z,2.77
2023-01-11T19:56:15.889Z,3.17
2023-01-11T19:58:45.828Z,3.50
2023-01-11T20:01:21.627Z,3.23
2023-01-11T20:03:56.538Z,3.40
2023-01-11T20:06:27.330Z,3.60
2023-01-11T20:09:01.966Z,3.57
2023-01-11T20:11:33.430Z,3.23
2023-01-11T20:14:11.631Z,3.57
2023-01-11T20:16:44.118Z,4.17
2023-01-11T20:19:13.449Z,3.90
2023-01-11T20:21:46.033Z,3.60
2023-01-11T20:24:23.105Z,4.17
2023-01-11T20:26:54.626Z,3.90
2023-01-11T20:29:47.431Z,5.17
2023-01-11T20:32:39.840Z,4.30
2023-01-11T20:35:07.110Z,3.90
2023-01-11T20:37:39.346Z,4.07
2023-01-11T20:40:14.858Z,3.83
2023-01-11T20:42:48.338Z,3.43
2023-01-11T20:45:22.936Z,3.57
2023-01-11T20:47:52.791Z,3.03
2023-01-11T20:50:21.340Z,3.93
2023-01-11T20:52:52.949Z,3.80
2023-01-11T20:55:24.936Z,5.23
2023-01-11T20:57:59.130Z,3.50
2023-01-11T21:00:34.998Z,3.07
2023-01-11T21:03:09.365Z,6.13
2023-01-11T21:05:44.440Z,4.17
2023-01-11T21:08:15.999Z,3.63
2023-01-11T21:10:50.210Z,2.80
2023-01-11T21:13:20.218Z,5.53
2023-01-11T21:15:57.480Z,3.43
2023-01-11T21:18:37.780Z,2.63
2023-01-11T21:21:16.444Z,2.67
2023-01-11T21:23:52.448Z,4.97
2023-01-11T21:26:34.237Z,4.23
2023-01-11T21:29:07.743Z,6.33
2023-01-11T21:31:39.467Z,4.33
2023-01-11T21:34:14.879Z,4.87
2023-01-11T21:36:48.259Z,4.27
2023-01-11T21:39:23.131Z,5.27
2023-01-11T21:42:02.504Z,4.47
2023-01-11T21:44:34.044Z,4.23
2023-01-11T21:47:06.053Z,4.60
2023-01-11T21:49:35.376Z,4.47
2023-01-11T21:52:21.362Z,2.77
2023-01-11T21:54:55.234Z,3.83
2023-01-11T21:57:39.470Z,2.90
2023-01-11T22:00:18.900Z,2.70
2023-01-11T22:02:58.663Z,2.73
2023-01-11T22:05:29.753Z,4.03
2023-01-11T22:08:08.316Z,4.37
2023-01-11T22:11:01.575Z,3.10
2023-01-11T22:13:31.786Z,3.23
2023-01-11T22:16:46.973Z,2.20
2023-01-11T22:19:36.265Z,2.93
2023-01-11T22:22:12.300Z,2.77
2023-01-11T22:24:52.403Z,2.30
2023-01-11T22:27:31.785Z,2.70
2023-01-11T22:30:10.046Z,2.93
2023-01-11T22:32:44.622Z,2.40
2023-01-11T22:35:19.997Z,2.40
2023-01-11T22:37:51.418Z,2.20
2023-01-11T22:40:30.045Z,2.87
2023-01-11T22:43:09.991Z,2.70
2023-01-11T22:45:45.651Z,2.83
2023-01-11T22:48:19.342Z,2.83
2023-01-11T22:50:58.157Z,2.90
2023-01-11T22:53:31.682Z,2.93
2023-01-11T22:56:06.728Z,2.97
2023-01-11T22:58:39.290Z,3.40
2023-01-11T23:01:13.153Z,3.23
2023-01-11T23:03:42.318Z,3.10
2023-01-11T23:06:12.888Z,2.53
2023-01-11T23:08:42.965Z,2.90
2023-01-11T23:11:14.952Z,2.20
2023-01-11T23:13:55.223Z,2.83
2023-01-11T23:16:24.100Z,2.53
2023-01-11T23:18:52.629Z,2.77
2023-01-11T23:21:22.549Z,2.50
2023-01-11T23:23:51.101Z,2.10
2023-01-11T23:26:20.407Z,2.20
2023-01-11T23:28:50.412Z,2.60
2023-01-11T23:31:20.605Z,2.60
2023-01-11T23:33:50.696Z,2.77
2023-01-11T23:36:22.472Z,2.57
2023-01-11T23:38:52.065Z,2.37
2023-01-11T23:41:39.122Z,2.17
2023-01-11T23:44:09.147Z,2.53
2023-01-11T23:46:55.623Z,2.50
2023-01-11T23:49:24.728Z,2.80
2023-01-11T23:51:55.104Z,2.53
2023-01-11T23:54:24.114Z,2.40
2023-01-11T23:56:52.664Z,2.30
2023-01-11T23:59:21.237Z,2.30
